Time;durP1;ratioP1;P1;durP2;ratioP2;P2;SDS_P1;SDS_P2;PMS_P1;PMS_P2;Temp;Humidity;BMP_temperature;BMP_pressure;BME280_temperature;BME280_humidity;BME280_pressure;Samples;Min_cycle;Max_cycle;Signal;HPM_P1;HPM_P2
2022/06/13 00:01:33;;;;;;;2.42;0.88;;;25.40;96.70;;;;;;5082272;28;20424;-81
2022/06/13 00:04:03;;;;;;;3.15;0.90;;;25.40;96.70;;;;;;5079721;28;20193;-81
2022/06/13 00:06:31;;;;;;;2.42;1.15;;;25.30;96.70;;;;;;5080262;28;20048;-81
2022/06/13 00:08:59;;;;;;;2.58;0.70;;;25.10;96.70;;;;;;5068935;28;20581;-81
2022/06/13 00:11:27;;;;;;;1.95;0.82;;;25.20;96.70;;;;;;5080343;28;20058;-82
2022/06/13 00:13:56;;;;;;;3.42;0.95;;;24.90;96.70;;;;;;5079895;28;20042;-81
2022/06/13 00:16:24;;;;;;;1.23;0.70;;;24.80;96.70;;;;;;5080568;28;20404;-81
2022/06/13 00:18:54;;;;;;;2.42;1.00;;;24.80;96.70;;;;;;5067969;27;20072;-81
2022/06/13 00:21:25;;;;;;;3.10;0.70;;;24.90;96.70;;;;;;5079813;28;20135;-80
2022/06/13 00:23:53;;;;;;;3.28;0.90;;;24.90;96.70;;;;;;5109410;27;20039;-80
2022/06/13 00:26:23;;;;;;;2.25;0.60;;;24.90;96.70;;;;;;5086475;28;20569;-80
2022/06/13 00:28:56;;;;;;;1.85;0.77;;;24.80;96.70;;;;;;5083763;28;20047;-80
2022/06/13 00:31:25;;;;;;;2.63;0.80;;;24.90;96.70;;;;;;5082344;28;20048;-80
2022/06/13 00:33:54;;;;;;;1.70;0.77;;;24.90;96.70;;;;;;5084659;28;20258;-80
2022/06/13 00:36:23;;;;;;;2.15;0.60;;;24.70;96.70;;;;;;5066387;27;20050;-81
2022/06/13 00:38:52;;;;;;;2.65;0.70;;;24.80;96.70;;;;;;5085014;28;20039;-80
2022/06/13 00:41:24;;;;;;;2.65;0.60;;;24.80;96.70;;;;;;5081224;28;20062;-80
2022/06/13 00:43:53;;;;;;;3.70;0.50;;;24.90;96.70;;;;;;5084596;28;20043;-80
2022/06/13 00:46:23;;;;;;;0.80;0.60;;;24.90;96.70;;;;;;5071243;28;20055;-80
2022/06/13 00:48:57;;;;;;;1.23;0.73;;;24.70;96.70;;;;;;5105691;27;20516;-81
2022/06/13 00:51:26;;;;;;;3.92;0.82;;;24.60;96.70;;;;;;5087578;28;20048;-81
2022/06/13 00:53:55;;;;;;;1.17;0.57;;;24.60;96.70;;;;;;5102778;27;20050;-81
2022/06/13 00:56:29;;;;;;;2.83;0.63;;;24.60;96.70;;;;;;5098010;27;20508;-81
2022/06/13 00:59:00;;;;;;;1.98;0.40;;;24.70;96.70;;;;;;5083551;28;20039;-81
2022/06/13 01:01:31;;;;;;;1.50;0.77;;;24.70;96.70;;;;;;5082147;27;20050;-82
2022/06/13 01:04:04;;;;;;;1.63;0.60;;;24.60;96.70;;;;;;5091668;28;20500;-82
2022/06/13 01:06:36;;;;;;;2.05;0.73;;;24.60;96.70;;;;;;5090164;27;20053;-83
2022/06/13 01:09:08;;;;;;;1.70;0.68;;;24.70;96.70;;;;;;5079598;27;20696;-81
2022/06/13 01:11:38;;;;;;;1.45;0.60;;;24.80;96.70;;;;;;5066728;28;20475;-81
2022/06/13 01:14:38;;;;;;;1.63;0.63;;;24.70;96.70;;;;;;5095827;28;20044;-81
2022/06/13 01:17:27;;;;;;;1.23;0.50;;;24.60;96.70;;;;;;5078503;28;20052;-82
2022/06/13 01:20:17;;;;;;;1.45;0.47;;;24.40;96.70;;;;;;5074424;28;20063;-83
2022/06/13 01:23:26;;;;;;;1.42;0.47;;;24.40;96.70;;;;;;5088405;28;20046;-82
2022/06/13 01:26:36;;;;;;;1.55;0.50;;;24.20;96.70;;;;;;5084540;28;20054;-82
2022/06/13 01:29:39;;;;;;;1.15;0.40;;;24.20;96.70;;;;;;5084064;28;20322;-82
2022/06/13 01:32:20;;;;;;;1.23;0.55;;;24.40;96.70;;;;;;5087211;28;20040;-82
2022/06/13 01:34:58;;;;;;;2.03;0.40;;;24.40;96.70;;;;;;5088034;27;20054;-81
2022/06/13 01:37:45;;;;;;;2.55;0.40;;;24.20;96.70;;;;;;5083170;27;20411;-80
2022/06/13 01:40:24;;;;;;;1.08;0.43;;;23.90;96.70;;;;;;5059390;28;20059;-81
2022/06/13 01:43:03;;;;;;;2.78;0.40;;;24.10;96.70;;;;;;5097675;27;20040;-82
2022/06/13 01:45:40;;;;;;;0.77;0.35;;;24.20;96.70;;;;;;5101356;27;20051;-81
2022/06/13 01:48:18;;;;;;;1.48;0.45;;;24.10;96.70;;;;;;5081627;28;20048;-81
2022/06/13 01:50:53;;;;;;;0.95;0.40;;;24.10;96.70;;;;;;5094757;27;20069;-82
2022/06/13 01:53:29;;;;;;;0.80;0.70;;;24.10;96.70;;;;;;5083508;28;20084;-82
2022/06/13 01:56:04;;;;;;;2.83;0.77;;;24.10;96.70;;;;;;5102475;27;20450;-82
2022/06/13 01:58:39;;;;;;;1.38;0.47;;;24.00;96.70;;;;;;5108125;27;20281;-81
2022/06/13 02:01:11;;;;;;;3.97;0.40;;;23.90;96.70;;;;;;5082002;27;20093;-82
2022/06/13 02:03:44;;;;;;;2.70;0.40;;;23.90;96.70;;;;;;5080551;27;20113;-82
2022/06/13 02:06:17;;;;;;;1.10;0.38;;;23.50;96.70;;;;;;5083775;28;20057;-83
2022/06/13 02:08:53;;;;;;;3.38;0.98;;;23.50;96.70;;;;;;5083888;27;20458;-82
2022/06/13 02:11:26;;;;;;;2.67;0.50;;;23.50;96.70;;;;;;5115007;27;20032;-82
2022/06/13 02:13:59;;;;;;;0.52;0.40;;;23.60;96.70;;;;;;5071939;28;20048;-82
2022/06/13 02:16:37;;;;;;;1.83;0.70;;;23.50;96.70;;;;;;5107508;27;20054;-83
2022/06/13 02:19:11;;;;;;;1.33;0.50;;;23.60;96.70;;;;;;5069694;27;20051;-81
2022/06/13 02:21:43;;;;;;;0.65;0.40;;;23.50;96.70;;;;;;5085233;27;20130;-82
2022/06/13 02:24:16;;;;;;;1.83;0.50;;;23.60;96.70;;;;;;5089082;28;20540;-83
2022/06/13 02:26:48;;;;;;;1.55;0.40;;;23.60;96.70;;;;;;5081703;28;20056;-82
2022/06/13 02:29:25;;;;;;;1.25;0.50;;;23.60;96.70;;;;;;5063859;28;20110;-82
2022/06/13 02:31:59;;;;;;;2.20;0.93;;;23.60;96.70;;;;;;5067797;28;20097;-82
2022/06/13 02:34:34;;;;;;;2.25;0.60;;;23.60;96.70;;;;;;5064618;28;20501;-82
2022/06/13 02:37:09;;;;;;;1.63;0.50;;;23.60;96.70;;;;;;5064716;28;20043;-81
2022/06/13 02:39:42;;;;;;;2.10;0.60;;;23.50;96.70;;;;;;5063144;28;20045;-82
2022/06/13 02:42:14;;;;;;;1.83;0.60;;;23.40;96.70;;;;;;5073403;28;20374;-82
2022/06/13 02:44:48;;;;;;;1.33;0.55;;;23.30;96.70;;;;;;5058553;28;20053;-83
2022/06/13 02:47:22;;;;;;;1.92;0.60;;;23.20;96.70;;;;;;5084292;28;20408;-82
2022/06/13 02:49:59;;;;;;;2.30;0.80;;;23.20;96.70;;;;;;5088836;28;20066;-80
2022/06/13 02:52:31;;;;;;;1.17;0.70;;;23.00;96.70;;;;;;5073179;28;20562;-81
2022/06/13 02:55:04;;;;;;;2.28;0.80;;;23.00;96.70;;;;;;5080186;28;20046;-81
2022/06/13 02:57:58;;;;;;;3.45;0.60;;;23.10;96.70;;;;;;5087339;28;20179;-83
2022/06/13 03:00:41;;;;;;;1.13;0.82;;;23.20;96.70;;;;;;5063225;28;20059;-83
2022/06/13 03:03:17;;;;;;;0.90;0.60;;;23.10;96.70;;;;;;5086613;28;20497;-83
2022/06/13 03:05:56;;;;;;;1.90;0.70;;;23.00;96.70;;;;;;5085678;28;20048;-83
2022/06/13 03:08:55;;;;;;;2.35;0.60;;;23.00;96.70;;;;;;5065404;28;20501;-83
2022/06/13 03:11:53;;;;;;;2.20;0.60;;;23.10;96.70;;;;;;5044397;28;20101;-81
2022/06/13 03:14:38;;;;;;;2.13;0.68;;;23.10;96.70;;;;;;5079182;28;20051;-82
2022/06/13 03:17:14;;;;;;;1.98;0.90;;;23.00;96.70;;;;;;5089968;28;20405;-83
2022/06/13 03:19:47;;;;;;;1.13;0.70;;;23.00;96.70;;;;;;5082209;28;20492;-82
2022/06/13 03:22:24;;;;;;;1.20;0.70;;;22.80;96.70;;;;;;5082146;28;20046;-82
2022/06/13 03:24:59;;;;;;;1.92;0.77;;;22.90;96.70;;;;;;5079825;28;20048;-82
2022/06/13 03:27:37;;;;;;;1.38;0.60;;;23.00;96.70;;;;;;5064503;28;20461;-83
2022/06/13 03:30:08;;;;;;;2.35;0.90;;;23.00;96.70;;;;;;5082298;28;20050;-82
2022/06/13 03:32:40;;;;;;;4.07;0.80;;;23.10;96.70;;;;;;5107489;27;20500;-82
2022/06/13 03:35:13;;;;;;;2.05;1.05;;;23.20;96.70;;;;;;5076125;28;20140;-81
2022/06/13 03:37:47;;;;;;;4.05;0.82;;;23.00;96.70;;;;;;5085967;28;20054;-81
2022/06/13 03:40:20;;;;;;;3.65;0.70;;;23.00;96.70;;;;;;5077401;28;20064;-82
2022/06/13 03:42:55;;;;;;;3.30;0.63;;;23.00;96.70;;;;;;5072011;28;20044;-81
2022/06/13 03:45:28;;;;;;;1.92;0.70;;;23.00;96.70;;;;;;5093206;28;20040;-81
2022/06/13 03:48:03;;;;;;;1.67;0.60;;;23.10;96.70;;;;;;5078124;27;20090;-80
2022/06/13 03:50:39;;;;;;;2.50;0.80;;;23.10;96.70;;;;;;5085365;28;20047;-80
2022/06/13 03:53:17;;;;;;;3.28;0.77;;;22.90;96.70;;;;;;5094383;28;20485;-81
2022/06/13 03:55:50;;;;;;;2.03;0.50;;;22.80;96.70;;;;;;5087558;28;20058;-82
2022/06/13 03:58:25;;;;;;;3.15;0.40;;;22.60;96.70;;;;;;5089077;28;20497;-81
2022/06/13 04:01:00;;;;;;;3.55;0.63;;;22.50;96.70;;;;;;5081001;28;20092;-84
2022/06/13 04:03:29;;;;;;;2.92;1.13;;;22.60;96.70;;;;;;5110865;28;20043;-84
2022/06/13 04:06:00;;;;;;;1.48;0.60;;;22.70;96.70;;;;;;5088387;28;20116;-84
2022/06/13 04:08:33;;;;;;;1.50;0.50;;;22.70;96.70;;;;;;5088082;28;20056;-84
2022/06/13 04:11:16;;;;;;;0.82;0.55;;;22.80;96.70;;;;;;5104354;28;20804;-84
2022/06/13 04:13:57;;;;;;;1.38;0.60;;;22.70;96.70;;;;;;5088106;28;20048;-84
2022/06/13 04:16:40;;;;;;;1.05;0.50;;;22.70;96.70;;;;;;5085470;28;20058;-82
2022/06/13 04:19:24;;;;;;;1.35;0.60;;;22.70;96.70;;;;;;5104628;28;20076;-82
2022/06/13 04:22:00;;;;;;;4.68;0.63;;;22.80;96.70;;;;;;5092759;28;20423;-81
2022/06/13 04:24:39;;;;;;;3.40;0.57;;;22.80;96.70;;;;;;5051116;28;20104;-82
2022/06/13 04:27:15;;;;;;;1.58;0.43;;;22.50;96.70;;;;;;5090989;28;20059;-83
2022/06/13 04:29:49;;;;;;;1.90;0.68;;;22.40;96.70;;;;;;5086920;28;20135;-81
2022/06/13 04:32:23;;;;;;;3.53;0.90;;;22.40;96.70;;;;;;5077559;28;20143;-81
2022/06/13 04:34:53;;;;;;;2.50;0.75;;;22.90;96.70;;;;;;5061218;28;20048;-82
2022/06/13 04:37:23;;;;;;;2.53;0.60;;;23.10;96.70;;;;;;5079783;28;20503;-82
2022/06/13 04:39:58;;;;;;;2.88;0.60;;;23.10;96.70;;;;;;5080182;28;20489;-81
2022/06/13 04:42:31;;;;;;;1.25;0.60;;;22.80;96.70;;;;;;5081968;28;20044;-81
2022/06/13 04:45:07;;;;;;;1.42;0.70;;;22.70;96.70;;;;;;5077727;28;20142;-81
2022/06/13 04:47:37;;;;;;;2.65;0.90;;;22.90;96.70;;;;;;5072360;28;20059;-81
2022/06/13 04:50:06;;;;;;;1.38;0.90;;;22.80;96.70;;;;;;5089521;28;20050;-81
2022/06/13 04:52:36;;;;;;;1.75;0.60;;;22.60;96.70;;;;;;5108296;28;20039;-82
2022/06/13 04:55:14;;;;;;;1.27;0.65;;;22.50;96.70;;;;;;5091662;28;20528;-82
2022/06/13 04:57:42;;;;;;;2.53;0.70;;;22.50;96.70;;;;;;5079932;28;20119;-82
2022/06/13 05:00:13;;;;;;;3.72;0.85;;;22.50;96.70;;;;;;5106388;28;20039;-83
2022/06/13 05:02:42;;;;;;;2.15;0.63;;;22.50;96.70;;;;;;5080259;28;20048;-82
2022/06/13 05:05:32;;;;;;;4.10;0.90;;;22.90;96.70;;;;;;5092768;27;20048;-82
2022/06/13 05:08:11;;;;;;;3.58;0.88;;;23.20;96.70;;;;;;5084877;28;20066;-81
2022/06/13 05:10:44;;;;;;;4.05;0.75;;;23.00;96.70;;;;;;5102067;27;20048;-81
2022/06/13 05:13:12;;;;;;;2.30;0.60;;;22.70;96.70;;;;;;5067134;28;20532;-82
2022/06/13 05:15:40;;;;;;;4.72;0.75;;;22.60;96.70;;;;;;5081414;28;20078;-82
2022/06/13 05:18:36;;;;;;;1.08;0.70;;;22.70;96.70;;;;;;5106664;27;20040;-81
2022/06/13 05:21:21;;;;;;;1.25;0.80;;;22.80;96.70;;;;;;5082727;27;20043;-81
2022/06/13 05:24:25;;;;;;;1.45;0.77;;;22.80;96.70;;;;;;5081233;28;20035;-81
2022/06/13 05:26:55;;;;;;;1.25;0.70;;;22.80;96.70;;;;;;5002687;28;20124;-82
2022/06/13 05:29:25;;;;;;;1.25;0.60;;;22.80;96.70;;;;;;4990671;28;20510;-81
2022/06/13 05:31:54;;;;;;;2.25;1.00;;;22.90;96.70;;;;;;4989758;28;20092;-82
2022/06/13 05:34:28;;;;;;;1.95;0.77;;;23.00;96.70;;;;;;5001154;28;20053;-82
2022/06/13 05:36:57;;;;;;;2.75;1.05;;;23.20;96.70;;;;;;4991342;28;20045;-82
2022/06/13 05:39:25;;;;;;;1.58;0.90;;;22.90;96.70;;;;;;5008198;28;20038;-82
2022/06/13 05:42:04;;;;;;;3.75;1.17;;;23.00;96.70;;;;;;5002870;28;20577;-82
2022/06/13 05:44:32;;;;;;;2.20;1.13;;;23.30;96.70;;;;;;4975341;28;20173;-82
2022/06/13 05:47:01;;;;;;;3.85;1.45;;;23.40;96.70;;;;;;4981890;28;20125;-82
2022/06/13 05:49:29;;;;;;;3.72;1.75;;;23.40;96.70;;;;;;4998750;28;20137;-81
2022/06/13 05:51:57;;;;;;;4.53;1.75;;;23.40;96.70;;;;;;4990583;28;20416;-82
2022/06/13 05:54:25;;;;;;;2.78;1.45;;;23.30;96.70;;;;;;4982498;28;20046;-82
2022/06/13 05:56:55;;;;;;;4.57;1.63;;;23.30;96.70;;;;;;4988004;28;20042;-83
2022/06/13 05:59:23;;;;;;;4.05;1.85;;;23.20;96.70;;;;;;4990478;28;20052;-82
2022/06/13 06:01:57;;;;;;;4.15;1.75;;;23.30;96.70;;;;;;5009164;28;20063;-82
2022/06/13 06:04:25;;;;;;;4.25;1.38;;;23.30;96.70;;;;;;5057142;28;20047;-82
2022/06/13 06:06:53;;;;;;;5.72;2.08;;;23.50;96.70;;;;;;5062504;28;20059;-82
2022/06/13 06:09:21;;;;;;;6.63;2.67;;;23.80;96.70;;;;;;5048540;28;20037;-82
2022/06/13 06:11:49;;;;;;;4.72;2.17;;;23.80;96.70;;;;;;5069608;28;20041;-83
2022/06/13 06:14:18;;;;;;;6.05;2.15;;;23.80;96.70;;;;;;5072122;28;20039;-82
2022/06/13 06:16:46;;;;;;;4.10;1.90;;;24.00;96.70;;;;;;5046212;28;20166;-83
2022/06/13 06:19:14;;;;;;;5.30;2.17;;;24.00;96.70;;;;;;5066080;28;20041;-83
2022/06/13 06:21:43;;;;;;;4.82;1.92;;;24.10;96.70;;;;;;5078892;28;20410;-82
2022/06/13 06:24:11;;;;;;;4.18;2.03;;;24.10;96.70;;;;;;5076947;28;20036;-82
2022/06/13 06:26:39;;;;;;;5.40;2.50;;;24.20;96.70;;;;;;5064039;28;20114;-82
2022/06/13 06:29:07;;;;;;;6.22;2.20;;;24.20;96.70;;;;;;5076688;28;20109;-82
2022/06/13 06:31:37;;;;;;;4.95;2.17;;;24.20;96.70;;;;;;5096568;27;20040;-82
2022/06/13 06:34:05;;;;;;;5.50;2.08;;;24.20;96.70;;;;;;5067112;28;20043;-82
2022/06/13 06:36:33;;;;;;;5.40;2.00;;;24.30;96.70;;;;;;5102528;27;20093;-83
2022/06/13 06:39:01;;;;;;;7.43;1.77;;;24.30;96.70;;;;;;5081226;27;20040;-83
2022/06/13 06:41:29;;;;;;;4.00;1.70;;;24.40;96.70;;;;;;5079178;28;20047;-83
2022/06/13 06:43:57;;;;;;;3.45;1.33;;;24.50;96.70;;;;;;5080381;28;20047;-82
2022/06/13 06:46:26;;;;;;;2.60;1.08;;;24.50;96.70;;;;;;5099644;27;20039;-82
2022/06/13 06:48:56;;;;;;;5.55;1.50;;;24.50;96.70;;;;;;5098614;27;20559;-82
2022/06/13 06:51:29;;;;;;;3.10;1.10;;;24.60;96.70;;;;;;5103445;28;20116;-82
2022/06/13 07:02:38;;;;;;;6.28;1.85;;;24.70;96.70;;;;;;5024842;28;20159;-82
2022/06/13 07:05:09;;;;;;;4.68;1.60;;;24.70;96.70;;;;;;5025477;28;20047;-82
2022/06/13 07:07:38;;;;;;;4.55;1.98;;;24.80;96.70;;;;;;5025635;28;20061;-82
2022/06/13 07:10:07;;;;;;;6.22;1.70;;;24.80;96.70;;;;;;5040436;28;20604;-81
2022/06/13 07:12:35;;;;;;;3.42;1.60;;;24.70;96.70;;;;;;5024663;28;20091;-81
2022/06/13 07:15:03;;;;;;;3.63;1.73;;;24.80;96.70;;;;;;5042017;28;20045;-81
2022/06/13 07:17:31;;;;;;;2.83;1.60;;;24.90;96.70;;;;;;5041491;28;20602;-81
2022/06/13 07:19:59;;;;;;;3.05;1.48;;;24.90;96.70;;;;;;5026174;28;20048;-80
2022/06/13 07:22:30;;;;;;;4.93;1.63;;;24.80;96.70;;;;;;5024033;28;20654;-82
2022/06/13 07:24:58;;;;;;;4.35;1.60;;;24.90;96.70;;;;;;5025813;28;20493;-81
2022/06/13 07:27:26;;;;;;;2.50;1.25;;;24.80;96.70;;;;;;5037558;28;20049;-82
2022/06/13 07:29:54;;;;;;;3.53;1.45;;;24.90;96.70;;;;;;5032061;28;20110;-81
2022/06/13 07:32:25;;;;;;;3.22;1.58;;;25.00;96.70;;;;;;5043510;28;20159;-83
2022/06/13 07:34:54;;;;;;;3.50;1.48;;;25.10;96.70;;;;;;5023620;28;20054;-84
2022/06/13 07:40:14;;;;;;;7.88;2.38;;;25.20;96.70;;;;;;5017637;28;20184;-82
2022/06/13 07:42:46;;;;;;;4.15;1.40;;;25.30;96.70;;;;;;5019817;28;20160;-81
2022/06/13 07:45:30;;;;;;;3.38;1.55;;;25.40;96.70;;;;;;5001546;28;20060;-83
2022/06/13 07:48:16;;;;;;;3.53;1.27;;;25.40;96.70;;;;;;4997767;28;20171;-82
2022/06/13 07:50:44;;;;;;;4.00;1.40;;;25.60;96.70;;;;;;5040552;28;20127;-83
2022/06/13 07:53:13;;;;;;;3.90;1.50;;;25.60;96.70;;;;;;5024498;28;20049;-80
2022/06/13 07:55:43;;;;;;;3.17;1.30;;;25.60;96.70;;;;;;5037093;28;20533;-80
2022/06/13 07:58:17;;;;;;;5.38;1.13;;;25.70;96.70;;;;;;5010579;28;20639;-80
2022/06/13 08:00:49;;;;;;;4.05;1.00;;;25.70;96.70;;;;;;5032381;28;20049;-82
2022/06/13 08:03:19;;;;;;;3.70;1.13;;;25.80;96.70;;;;;;5035076;28;20057;-82
2022/06/13 08:05:47;;;;;;;3.58;1.02;;;25.90;96.70;;;;;;5050044;28;20483;-81
2022/06/13 08:08:16;;;;;;;1.83;1.10;;;26.00;96.70;;;;;;5094280;28;20039;-81
2022/06/13 08:10:47;;;;;;;4.80;1.33;;;26.10;96.70;;;;;;5082127;28;20052;-82
2022/06/13 08:13:25;;;;;;;3.33;1.15;;;26.20;96.70;;;;;;5088126;28;20524;-84
2022/06/13 08:15:53;;;;;;;3.25;1.05;;;26.20;96.70;;;;;;5083444;28;20049;-84
2022/06/13 08:18:21;;;;;;;4.93;1.08;;;26.20;96.70;;;;;;5104416;28;20414;-83
2022/06/13 08:20:50;;;;;;;1.55;1.10;;;26.20;96.70;;;;;;5087644;28;20052;-85
2022/06/13 08:23:23;;;;;;;3.75;0.90;;;26.30;96.70;;;;;;5087962;28;20123;-84
2022/06/13 08:25:53;;;;;;;2.63;0.90;;;26.20;96.70;;;;;;5066434;28;20491;-85
2022/06/13 08:28:22;;;;;;;2.45;1.00;;;26.40;96.70;;;;;;5084416;28;20509;-83
2022/06/13 08:30:53;;;;;;;3.45;1.02;;;26.50;96.70;;;;;;5083612;28;20550;-85
2022/06/13 08:33:21;;;;;;;4.15;1.27;;;26.50;96.70;;;;;;5099196;28;20044;-84
2022/06/13 08:35:50;;;;;;;4.53;0.82;;;26.60;96.70;;;;;;5087338;28;20036;-85
2022/06/13 08:38:19;;;;;;;2.67;1.20;;;26.70;96.70;;;;;;5083259;28;20162;-84
2022/06/13 08:40:57;;;;;;;3.17;1.10;;;26.80;96.70;;;;;;5090050;28;20564;-84
2022/06/13 08:44:02;;;;;;;2.13;0.90;;;26.80;96.70;;;;;;5081427;28;20391;-85
2022/06/13 08:46:44;;;;;;;2.42;1.02;;;26.90;96.70;;;;;;5079509;28;20085;-84
2022/06/13 08:49:18;;;;;;;3.78;0.90;;;26.80;96.70;;;;;;5088558;28;20042;-84
2022/06/13 08:51:49;;;;;;;3.50;1.13;;;26.90;96.70;;;;;;5106348;28;20063;-84
2022/06/13 08:54:22;;;;;;;3.55;0.80;;;26.90;96.70;;;;;;5085807;28;20108;-84
2022/06/13 08:56:52;;;;;;;1.85;0.75;;;27.10;96.70;;;;;;5107393;27;20043;-84
2022/06/13 08:59:26;;;;;;;1.50;0.60;;;27.20;96.70;;;;;;5106950;27;20055;-84
2022/06/13 09:02:01;;;;;;;1.20;0.65;;;27.20;96.70;;;;;;5096400;27;20044;-84
2022/06/13 09:04:35;;;;;;;5.22;0.90;;;27.10;96.70;;;;;;5083059;28;20505;-85
2022/06/13 09:07:09;;;;;;;3.75;1.60;;;27.30;96.70;;;;;;5095035;28;20172;-85
2022/06/13 09:09:45;;;;;;;4.50;1.13;;;27.50;96.70;;;;;;5085323;28;20080;-84
2022/06/13 09:12:27;;;;;;;3.30;1.17;;;27.60;96.70;;;;;;5069288;28;20052;-85
2022/06/13 09:15:04;;;;;;;2.90;0.93;;;27.60;96.70;;;;;;5087669;28;20047;-84
2022/06/13 09:17:39;;;;;;;2.00;1.05;;;27.80;96.70;;;;;;5104386;27;20063;-85
2022/06/13 09:20:14;;;;;;;1.98;1.00;;;27.80;96.70;;;;;;5075630;28;20048;-84
2022/06/13 09:22:46;;;;;;;4.35;1.58;;;27.80;96.70;;;;;;5092894;28;20054;-84
2022/06/13 09:25:40;;;;;;;2.15;0.93;;;27.90;96.70;;;;;;5099612;27;20528;-84
2022/06/13 09:28:14;;;;;;;5.15;1.73;;;28.00;96.70;;;;;;5009729;28;20152;-85
2022/06/13 09:30:48;;;;;;;6.35;1.50;;;28.10;96.70;;;;;;5027874;28;20423;-85
2022/06/13 09:33:22;;;;;;;3.97;1.73;;;28.10;96.70;;;;;;5007806;28;20053;-84
2022/06/13 09:35:57;;;;;;;8.00;1.70;;;28.10;96.70;;;;;;5025628;28;20049;-84
2022/06/13 09:38:30;;;;;;;4.35;1.27;;;28.20;96.70;;;;;;5014415;28;20136;-85
2022/06/13 09:41:10;;;;;;;3.47;1.40;;;28.20;96.70;;;;;;5026728;28;20158;-83
2022/06/13 09:43:50;;;;;;;4.07;1.67;;;28.20;96.70;;;;;;5035630;28;20049;-84
2022/06/13 09:46:27;;;;;;;5.40;2.10;;;28.30;96.70;;;;;;5080715;27;20063;-84
2022/06/13 09:49:04;;;;;;;3.72;1.50;;;28.50;96.70;;;;;;5083378;28;20048;-84
2022/06/13 09:51:43;;;;;;;2.70;1.20;;;28.50;96.70;;;;;;5106587;27;20050;-85
2022/06/13 09:54:21;;;;;;;4.97;1.70;;;28.70;96.70;;;;;;5061786;28;20056;-83
2022/06/13 09:57:04;;;;;;;2.42;1.13;;;28.70;96.70;;;;;;5085535;28;20101;-80
2022/06/13 09:59:50;;;;;;;5.80;1.42;;;28.80;95.80;;;;;;5100201;27;20382;-80
2022/06/13 10:02:24;;;;;;;3.33;1.50;;;28.80;94.50;;;;;;5086735;28;20047;-82
2022/06/13 10:05:00;;;;;;;4.95;2.78;;;29.00;94.50;;;;;;5069725;28;20052;-82
2022/06/13 10:07:40;;;;;;;4.53;1.40;;;29.10;95.80;;;;;;5104423;27;20047;-84
2022/06/13 10:10:16;;;;;;;2.47;1.45;;;29.10;95.10;;;;;;5089929;27;20039;-82
2022/06/13 10:12:56;;;;;;;8.05;1.95;;;29.40;95.20;;;;;;5100811;27;20080;-84
2022/06/13 10:15:33;;;;;;;3.60;1.38;;;29.40;93.70;;;;;;5085336;28;20042;-82
2022/06/13 10:18:28;;;;;;;2.33;1.33;;;29.40;93.80;;;;;;5084025;28;20097;-82
2022/06/13 10:21:06;;;;;;;2.75;1.50;;;29.70;94.80;;;;;;5085060;28;20127;-84
2022/06/13 10:23:40;;;;;;;3.20;1.20;;;29.80;94.60;;;;;;5081804;28;20048;-81
2022/06/13 10:26:18;;;;;;;3.70;0.90;;;29.80;94.20;;;;;;5088060;28;20051;-82
2022/06/13 10:29:15;;;;;;;10.68;3.45;;;29.80;93.80;;;;;;5079931;28;20207;-82
2022/06/13 10:32:02;;;;;;;2.45;0.95;;;29.70;94.10;;;;;;5083796;28;20093;-82
2022/06/13 10:34:45;;;;;;;1.92;0.88;;;29.90;93.90;;;;;;5078916;28;20051;-82
2022/06/13 10:37:19;;;;;;;2.95;1.20;;;30.20;93.30;;;;;;5088297;27;20055;-81
2022/06/13 10:39:49;;;;;;;1.67;1.00;;;30.30;92.40;;;;;;5086075;27;20572;-81
2022/06/13 10:42:21;;;;;;;1.52;0.95;;;30.30;92.30;;;;;;5088309;27;20047;-83
2022/06/13 10:44:49;;;;;;;3.55;0.95;;;30.50;91.60;;;;;;5080394;28;20060;-80
2022/06/13 10:47:22;;;;;;;1.52;0.70;;;30.50;87.10;;;;;;5067246;28;20142;-82
2022/06/13 10:49:58;;;;;;;2.97;0.85;;;30.70;85.20;;;;;;5067677;28;20056;-82
2022/06/13 10:52:31;;;;;;;5.50;1.00;;;30.80;84.80;;;;;;5106056;27;20119;-82
2022/06/13 10:55:08;;;;;;;1.60;0.75;;;30.80;85.00;;;;;;5082105;28;20047;-82
2022/06/13 10:57:41;;;;;;;1.58;0.80;;;30.90;83.60;;;;;;5099384;27;20044;-84
2022/06/13 11:00:14;;;;;;;1.35;0.65;;;30.90;83.00;;;;;;5105554;27;20044;-84
2022/06/13 11:02:44;;;;;;;1.40;0.40;;;31.10;81.90;;;;;;5062109;28;20531;-85
2022/06/13 11:05:16;;;;;;;1.48;0.82;;;31.20;80.40;;;;;;5071193;28;20136;-86
2022/06/13 11:07:47;;;;;;;2.35;0.80;;;31.30;82.60;;;;;;5081592;28;20047;-86
2022/06/13 11:10:28;;;;;;;1.73;0.93;;;31.10;83.30;;;;;;5066629;28;20052;-85
2022/06/13 11:12:57;;;;;;;1.00;0.65;;;31.20;84.00;;;;;;5068785;28;20104;-85
2022/06/13 11:24:29;;;;;;;1.77;0.50;;;31.70;80.30;;;;;;5099607;27;20071;-85
2022/06/13 11:29:47;;;;;;;4.28;0.50;;;31.70;80.10;;;;;;5090390;27;20062;-87
2022/06/13 11:32:22;;;;;;;1.55;0.30;;;31.90;79.70;;;;;;5106042;28;20555;-87
2022/06/13 11:34:51;;;;;;;0.45;0.40;;;31.80;79.20;;;;;;5090496;28;20567;-88
2022/06/13 11:37:23;;;;;;;1.58;0.50;;;31.90;78.60;;;;;;5098940;28;20551;-88
2022/06/13 11:39:53;;;;;;;2.80;0.52;;;32.10;79.10;;;;;;5082973;28;20043;-88
2022/06/13 11:42:26;;;;;;;1.00;0.57;;;32.20;78.50;;;;;;5100967;28;20035;-88
2022/06/13 11:45:05;;;;;;;1.23;0.50;;;32.30;78.70;;;;;;5080536;28;20403;-87
2022/06/13 11:47:40;;;;;;;0.80;0.45;;;32.20;78.20;;;;;;5088433;28;20102;-88
2022/06/13 11:50:22;;;;;;;1.92;0.50;;;32.10;78.00;;;;;;5067015;28;20047;-87
2022/06/13 11:55:51;;;;;;;1.77;0.63;;;32.10;78.00;;;;;;5099345;28;20047;-87
2022/06/13 11:58:23;;;;;;;2.25;0.40;;;31.90;77.00;;;;;;5069998;28;20189;-87
2022/06/13 12:00:53;;;;;;;1.40;0.60;;;32.10;77.80;;;;;;5105728;28;20129;-84
2022/06/13 12:03:24;;;;;;;1.05;0.52;;;32.30;76.70;;;;;;5083561;28;20040;-84
2022/06/13 12:05:59;;;;;;;0.90;0.38;;;32.20;76.90;;;;;;5084045;28;20497;-84
2022/06/13 12:08:29;;;;;;;4.20;0.50;;;32.00;76.60;;;;;;5107051;28;20062;-86
2022/06/13 12:11:04;;;;;;;0.88;0.50;;;31.90;75.50;;;;;;5090886;28;20811;-85
2022/06/13 12:13:42;;;;;;;0.70;0.30;;;31.80;75.90;;;;;;5108434;27;20043;-86
2022/06/13 12:16:20;;;;;;;2.85;0.63;;;31.90;76.00;;;;;;5099829;27;20040;-86
2022/06/13 12:18:56;;;;;;;2.45;0.65;;;32.10;76.00;;;;;;5089464;28;20050;-86
2022/06/13 12:21:30;;;;;;;;;;;32.10;75.10;;;;;;5100815;28;20039;-85
2022/06/13 12:24:08;;;;;;;1.85;0.60;;;32.10;76.60;;;;;;5083355;28;19924;-85
2022/06/13 12:26:41;;;;;;;2.53;0.60;;;32.30;77.10;;;;;;5087948;28;20519;-86
2022/06/13 12:29:21;;;;;;;2.40;0.55;;;32.30;76.20;;;;;;5080778;28;20052;-86
2022/06/13 12:31:54;;;;;;;4.50;0.60;;;32.30;76.40;;;;;;5097889;28;20094;-87
2022/06/13 12:34:28;;;;;;;3.38;0.60;;;32.40;76.70;;;;;;5078035;28;20417;-85
2022/06/13 12:37:09;;;;;;;3.42;0.73;;;32.20;78.00;;;;;;5095138;28;20588;-86
2022/06/13 12:39:55;;;;;;;1.67;0.77;;;32.10;77.80;;;;;;5073081;28;20273;-85
2022/06/13 12:42:37;;;;;;;3.22;0.63;;;32.10;77.40;;;;;;5079984;28;20059;-86
2022/06/13 12:45:45;;;;;;;5.05;0.73;;;31.90;77.40;;;;;;5077035;28;20040;-85
2022/06/13 12:48:58;;;;;;;1.75;0.50;;;32.00;76.20;;;;;;5050695;28;20406;-85
2022/06/13 12:51:39;;;;;;;2.80;0.70;;;31.90;76.40;;;;;;5072909;28;20134;-86
2022/06/13 12:54:38;;;;;;;0.73;0.30;;;31.70;75.50;;;;;;5057667;28;20497;-86
2022/06/13 12:57:20;;;;;;;1.17;0.40;;;31.60;74.00;;;;;;5071247;28;20224;-85
2022/06/13 13:00:00;;;;;;;1.27;0.40;;;31.90;73.80;;;;;;5085860;28;20110;-83
2022/06/13 13:02:39;;;;;;;1.55;0.60;;;32.20;72.80;;;;;;5061325;28;20102;-83
2022/06/13 13:05:22;;;;;;;3.70;0.57;;;32.20;71.60;;;;;;5070823;28;20147;-83
2022/06/13 13:08:05;;;;;;;1.77;0.57;;;32.30;71.40;;;;;;5049499;28;20048;-83
2022/06/13 13:10:42;;;;;;;2.17;0.70;;;32.00;71.10;;;;;;5053103;28;20139;-82
2022/06/13 13:13:45;;;;;;;8.25;0.90;;;31.90;71.40;;;;;;5060900;28;20058;-82
2022/06/13 13:16:22;;;;;;;3.42;0.50;;;31.80;72.60;;;;;;5075693;28;20526;-83
2022/06/13 13:19:09;;;;;;;31.27;4.30;;;31.80;72.60;;;;;;5068217;28;20093;-83
2022/06/13 13:21:48;;;;;;;1.58;0.55;;;31.80;73.70;;;;;;5085077;28;20477;-83
2022/06/13 13:24:29;;;;;;;2.22;0.98;;;31.80;73.30;;;;;;5074390;28;20043;-82
2022/06/13 13:27:05;;;;;;;6.95;0.95;;;31.80;73.70;;;;;;5067916;28;20048;-85
2022/06/13 13:29:46;;;;;;;3.25;0.70;;;31.80;74.60;;;;;;5090727;27;20859;-85
2022/06/13 13:32:24;;;;;;;3.70;0.63;;;31.80;74.20;;;;;;5087680;28;20067;-86
2022/06/13 13:35:08;;;;;;;3.70;0.93;;;32.10;74.10;;;;;;5084914;28;20048;-83
2022/06/13 13:37:41;;;;;;;3.40;0.73;;;32.20;73.30;;;;;;5098487;28;20052;-84
2022/06/13 13:40:15;;;;;;;4.95;0.82;;;32.30;73.80;;;;;;5088969;27;20054;-85
2022/06/13 13:42:53;;;;;;;4.38;0.60;;;32.40;72.50;;;;;;5090849;27;20047;-83
2022/06/13 13:45:35;;;;;;;1.88;0.57;;;32.40;73.70;;;;;;5084348;28;20056;-82
2022/06/13 13:48:14;;;;;;;2.35;0.80;;;32.40;73.80;;;;;;5086393;28;20074;-85
2022/06/13 13:50:48;;;;;;;2.05;0.70;;;32.70;72.80;;;;;;5084646;28;20044;-89
2022/06/13 13:53:21;;;;;;;1.30;0.80;;;33.00;72.30;;;;;;5102496;28;20044;-85
2022/06/13 13:55:54;;;;;;;2.70;0.52;;;33.30;73.00;;;;;;5083481;27;20047;-88